Tuesday, April 28, 2015, 2:12 PM EDT
Back to Local

KPTW, Pottstown Limerick Airport

Location: Royersford, PA, United States Lat: 40.233
Local Time: 2:12 PM EDT (18:12 GMT) Lon: -75.55
Time Zone: US/Eastern Elev: 291 ft

Show me the last for .
Show Coded

Time T Td Feel RH Dir Speed Gust Alt SLP Vis Weather Sky Remarks
2015-04-28 13:54 64 38 - 38 340° 18 28 29.83 29.82 10 OVC070 6-hr Min Temp (2pm): 51.1°F
6-hr Max Temp (2pm): 66.0°F
2015-04-28 12:54 62 37 - 39 350° 15 29 29.84 29.83 10 SCT060 Peak wind: 31 mph (27 kts) from 360° at 29 min
2015-04-28 10:54 59 40 - 49 320° 17 23 29.88 29.87 10 FEW046 None
2015-04-28 09:54 57 40 - 52 350° 14 24 29.88 29.87 10 SCT042 None
2015-04-28 08:54 55 40 - 56 320° 10 18 29.87 29.87 10 FEW036 None
2015-04-28 07:54 51 40 - 65 320° 13 - 29.86 29.85 10 CLR 6-hr Min Temp (8am): 44.1°F
6-hr Max Temp (8am): 51.1°F
2015-04-28 06:54 47 40 43 76 330° 8 - 29.85 29.84 10 CLR None
2015-04-28 05:54 45 39 44 79 280° 3 - 29.83 29.82 10 CLR None
2015-04-28 04:54 48 39 44 70 320° 8 - 29.82 29.82 10 BKN033 OVC042 None
2015-04-28 03:54 48 39 44 70 290° 9 - 29.82 29.82 10 OVC030 None
2015-04-28 02:54 47 38 43 70 300° 9 - 29.81 29.80 10 BKN050 None
2015-04-28 00:54 49 36 45 60 320° 8 - 29.82 29.81 10 FEW037 OVC080 24-hr Min Temp (1am): 37.9°F
24-hr Max Temp (1am): 57.0°F
2015-04-27 23:54 49 34 45 56 330° 10 - 29.82 29.81 10 OVC044 None
2015-04-27 22:54 49 33 46 54 310° 7 - 29.81 29.81 10 BKN050 OVC100 None
2015-04-27 21:54 49 34 45 56 330° 9 - 29.81 29.80 10 FEW060 None
2015-04-27 19:54 52 31 - 44 320° 12 - 29.78 29.77 10 BKN080 6-hr Min Temp (8pm): 52.0°F
6-hr Max Temp (8pm): 55.0°F
2015-04-27 17:54 55 32 - 41 290° 12 18 29.75 29.74 10 FEW065 OVC080 None
2015-04-27 16:54 55 31 - 39 310° 13 21 29.74 29.73 10 OVC075 None
2015-04-27 15:54 54 32 - 43 310° 10 - 29.73 29.72 10 OVC070 None
2015-04-27 14:54 54 32 - 43 300° 14 20 29.74 29.74 10 BKN060 OVC075 None

Support USWX by starting your Amazon purchase here.